Time;durP1;ratioP1;P1;durP2;ratioP2;P2;SDS_P1;SDS_P2;PMS_P1;PMS_P2;Temp;Humidity;BMP_temperature;BMP_pressure;BME280_temperature;BME280_humidity;BME280_pressure;Samples;Min_cycle;Max_cycle;Signal;HPM_P1;HPM_P2
2021/04/14 00:02:34;;;;;;;13.65;12.23;;;;;;;2.23;79.87;99345.25;2145347;83;21181;-81
2021/04/14 00:05:36;;;;;;;15.70;13.48;;;;;;;2.17;80.14;99343.09;2168185;82;21191;-81
2021/04/14 00:08:38;;;;;;;17.17;14.58;;;;;;;2.11;80.21;99351.31;2165568;82;21168;-82
2021/04/14 00:11:39;;;;;;;14.03;12.40;;;;;;;2.06;80.19;99349.52;2148339;83;21152;-82
2021/04/14 00:14:41;;;;;;;14.98;12.68;;;;;;;2.06;80.31;99353.39;2168490;82;21153;-81
2021/04/14 00:17:43;;;;;;;19.10;15.23;;;;;;;1.98;80.45;99344.42;2165793;82;21102;-81
2021/04/14 00:20:46;;;;;;;15.28;13.35;;;;;;;1.93;80.46;99344.41;2168505;82;21173;-82
2021/04/14 00:23:48;;;;;;;16.65;14.15;;;;;;;1.93;80.57;99344.41;2168406;82;21611;-82
2021/04/14 00:26:50;;;;;;;18.45;14.47;;;;;;;1.90;80.55;99344.14;2145815;83;21818;-82
2021/04/14 00:29:51;;;;;;;17.10;14.28;;;;;;;1.96;80.59;99339.84;2167858;82;21139;-81
2021/04/14 00:32:55;;;;;;;17.48;14.18;;;;;;;2.02;80.67;99344.22;2165738;82;21739;-81
2021/04/14 00:35:56;;;;;;;14.33;12.85;;;;;;;2.05;80.53;99346.11;2148009;83;21311;-82
2021/04/14 00:38:58;;;;;;;16.25;13.58;;;;;;;2.08;80.51;99341.17;2168465;82;21342;-81
2021/04/14 00:42:00;;;;;;;16.85;14.93;;;;;;;2.09;80.54;99340.24;2165647;82;21719;-81
2021/04/14 00:45:01;;;;;;;15.48;13.78;;;;;;;2.09;80.52;99344.94;2148109;83;21129;-82
2021/04/14 00:48:04;;;;;;;13.10;11.57;;;;;;;2.13;80.60;99339.92;2168166;82;21180;-81
2021/04/14 00:51:06;;;;;;;18.05;14.33;;;;;;;2.14;80.73;99336.41;2165847;82;21304;-82
2021/04/14 00:54:09;;;;;;;13.75;12.15;;;;;;;2.15;80.50;99331.59;2168228;82;21213;-81
2021/04/14 00:57:10;;;;;;;16.00;13.83;;;;;;;2.14;80.53;99329.94;2168528;82;21200;-81
2021/04/14 01:00:12;;;;;;;15.83;13.45;;;;;;;2.11;80.52;99332.76;2142966;83;21319;-82
2021/04/14 01:03:14;;;;;;;14.98;13.38;;;;;;;2.10;80.65;99323.33;2142835;83;21311;-82
2021/04/14 01:06:17;;;;;;;16.05;13.80;;;;;;;2.09;80.82;99324.27;2142626;83;21300;-81
2021/04/14 01:09:19;;;;;;;14.70;13.20;;;;;;;2.02;80.71;99333.42;2142814;83;21296;-82
2021/04/14 01:12:21;;;;;;;16.52;13.45;;;;;;;1.94;80.74;99331.38;2142627;83;21596;-82
2021/04/14 01:15:23;;;;;;;16.82;13.78;;;;;;;1.94;81.24;99327.98;2142581;83;21303;-82
2021/04/14 01:18:25;;;;;;;17.45;14.50;;;;;;;1.92;81.12;99329.82;2142595;83;21581;-82
2021/04/14 01:21:27;;;;;;;20.00;16.45;;;;;;;1.90;81.30;99325.24;2142870;83;21588;-82
2021/04/14 01:24:29;;;;;;;15.48;11.97;;;;;;;1.89;81.40;99321.02;2142674;83;21303;-82
2021/04/14 01:27:31;;;;;;;16.27;13.25;;;;;;;1.92;81.74;99320.78;2142619;83;21150;-81
2021/04/14 01:30:32;;;;;;;18.05;13.40;;;;;;;1.92;81.71;99326.80;2142886;83;21180;-81
2021/04/14 01:33:34;;;;;;;16.57;12.43;;;;;;;1.90;81.43;99318.78;2142294;83;21324;-81
2021/04/14 01:36:36;;;;;;;11.30;9.28;;;;;;;1.88;81.51;99316.31;2142915;83;21176;-81
2021/04/14 01:39:38;;;;;;;11.83;9.58;;;;;;;1.83;82.22;99320.15;2142550;83;21346;-81
2021/04/14 01:42:40;;;;;;;9.83;8.75;;;;;;;1.76;82.35;99319.78;2143007;83;21490;-81
2021/04/14 01:45:42;;;;;;;10.93;9.40;;;;;;;1.70;82.36;99311.99;2142562;83;21160;-81
2021/04/14 01:48:44;;;;;;;10.20;8.90;;;;;;;1.64;82.89;99320.63;2142805;83;21197;-81
2021/04/14 01:51:46;;;;;;;12.98;11.15;;;;;;;1.59;82.93;99314.98;2142708;83;21205;-82
2021/04/14 01:54:48;;;;;;;13.15;9.40;;;;;;;1.50;82.43;99306.59;2142678;83;21327;-82
2021/04/14 01:57:50;;;;;;;10.38;9.38;;;;;;;1.43;83.50;99307.48;2142600;83;21787;-82
2021/04/14 02:00:54;;;;;;;13.28;11.70;;;;;;;1.41;83.08;99305.48;2142655;83;21707;-82
2021/04/14 02:03:55;;;;;;;11.50;10.10;;;;;;;1.39;83.21;99307.35;2143148;83;21162;-81
2021/04/14 02:06:57;;;;;;;13.43;11.88;;;;;;;1.42;83.44;99298.92;2142630;83;21707;-81
2021/04/14 02:09:59;;;;;;;14.00;12.50;;;;;;;1.41;83.14;99299.85;2142739;83;21181;-81
2021/04/14 02:13:01;;;;;;;13.35;11.55;;;;;;;1.42;83.14;99293.76;2142534;83;21114;-82
2021/04/14 02:16:04;;;;;;;15.58;12.45;;;;;;;1.48;83.23;99293.80;2142750;83;21122;-82
2021/04/14 02:19:06;;;;;;;20.17;15.72;;;;;;;1.48;83.32;99298.14;2142555;83;21134;-82
2021/04/14 02:22:07;;;;;;;18.98;14.60;;;;;;;1.51;83.14;99297.45;2142630;83;21299;-82
2021/04/14 02:25:09;;;;;;;16.48;13.32;;;;;;;1.54;83.16;99289.95;2142980;83;21138;-82
2021/04/14 02:28:11;;;;;;;16.80;13.88;;;;;;;1.54;83.29;99287.37;2142655;83;21735;-82
2021/04/14 02:31:13;;;;;;;15.00;12.50;;;;;;;1.57;83.17;99291.87;2142646;83;21339;-83
2021/04/14 02:34:14;;;;;;;15.95;13.95;;;;;;;1.57;83.56;99291.87;2142900;83;21216;-82
2021/04/14 02:37:17;;;;;;;17.48;12.15;;;;;;;1.52;83.79;99282.78;2142881;83;21340;-82
2021/04/14 02:40:18;;;;;;;12.23;10.28;;;;;;;1.49;84.02;99289.00;2142676;83;21185;-82
2021/04/14 02:43:20;;;;;;;10.80;9.48;;;;;;;1.47;84.12;99284.88;2142902;83;21157;-82
2021/04/14 02:46:22;;;;;;;9.25;8.45;;;;;;;;;;2142681;83;21608;-82
2021/04/14 02:49:24;;;;;;;11.33;10.23;;;;;;;1.44;83.84;99283.32;2144644;83;21862;-82
2021/04/14 02:52:26;;;;;;;10.38;9.28;;;;;;;1.42;83.99;99274.88;2142679;83;21763;-81
2021/04/14 02:55:29;;;;;;;11.40;9.18;;;;;;;1.40;83.84;99279.32;2142566;83;21738;-82
2021/04/14 02:58:30;;;;;;;9.80;7.97;;;;;;;1.38;83.95;99277.32;2142850;83;21312;-82
2021/04/14 03:01:32;;;;;;;8.05;7.33;;;;;;;1.38;84.03;99281.19;2142494;83;21324;-82
2021/04/14 03:04:35;;;;;;;10.13;9.18;;;;;;;1.37;84.01;99277.79;2142611;83;21666;-82
2021/04/14 03:07:37;;;;;;;8.08;7.37;;;;;;;1.37;84.03;99278.22;2142873;83;21228;-81
2021/04/14 03:10:38;;;;;;;9.20;8.30;;;;;;;1.34;84.39;99272.82;2142594;83;21331;-82
2021/04/14 03:13:40;;;;;;;7.60;6.60;;;;;;;1.31;84.35;99270.94;2142619;83;21178;-81
2021/04/14 03:16:42;;;;;;;9.85;8.83;;;;;;;1.31;84.67;99279.97;2142556;83;21176;-82
2021/04/14 03:19:44;;;;;;;9.95;8.93;;;;;;;1.28;84.62;99272.42;2142550;83;21141;-81
2021/04/14 03:22:47;;;;;;;9.53;8.68;;;;;;;1.28;84.65;99275.00;2142722;83;21160;-81
2021/04/14 03:25:49;;;;;;;10.50;9.38;;;;;;;1.25;84.97;99271.35;2142739;83;21268;-81
2021/04/14 03:28:51;;;;;;;9.88;8.88;;;;;;;1.25;84.72;99267.48;2142602;83;21283;-82
2021/04/14 03:31:53;;;;;;;8.95;8.05;;;;;;;1.23;84.99;99268.88;2142886;83;21287;-82
2021/04/14 03:34:55;;;;;;;7.03;6.28;;;;;;;1.23;85.28;99262.44;2142601;83;21287;-82
2021/04/14 03:37:57;;;;;;;10.53;8.90;;;;;;;1.21;85.64;99268.17;2142829;83;21260;-81
2021/04/14 03:41:00;;;;;;;7.87;7.08;;;;;;;1.18;85.77;99264.50;2142853;83;21119;-81
2021/04/14 03:44:02;;;;;;;11.70;9.13;;;;;;;1.18;85.55;99261.09;2142769;83;21291;-81
2021/04/14 03:47:03;;;;;;;8.90;7.55;;;;;;;1.16;85.82;99266.37;2142544;83;21284;-81
2021/04/14 03:50:06;;;;;;;9.15;8.03;;;;;;;1.13;85.71;99268.70;2142540;83;21311;-82
2021/04/14 03:53:08;;;;;;;9.75;8.78;;;;;;;1.13;86.03;99266.12;2142638;83;22191;-81
2021/04/14 03:56:10;;;;;;;9.45;8.65;;;;;;;1.11;86.19;99278.31;2142704;83;21327;-81
2021/04/14 03:59:12;;;;;;;9.78;8.78;;;;;;;1.09;86.05;99269.83;2142837;83;21151;-81
2021/04/14 04:02:14;;;;;;;9.30;8.38;;;;;;;1.09;86.36;99269.00;2145036;83;21172;-81
2021/04/14 04:05:16;;;;;;;9.10;7.47;;;;;;;1.05;86.34;99269.69;2145630;83;21176;-81
2021/04/14 04:08:19;;;;;;;8.25;7.58;;;;;;;1.05;86.75;99274.85;2145128;83;21161;-81
2021/04/14 04:11:21;;;;;;;6.72;6.12;;;;;;;1.03;86.60;99274.14;2145029;83;21659;-82
2021/04/14 04:14:24;;;;;;;8.98;7.50;;;;;;;1.03;86.71;99276.72;2145044;83;21185;-82
2021/04/14 04:17:26;;;;;;;8.88;7.92;;;;;;;1.06;86.30;99280.83;2145339;83;21169;-82
2021/04/14 04:20:28;;;;;;;8.73;7.85;;;;;;;1.07;86.58;99285.06;2144980;83;21180;-81
2021/04/14 04:23:30;;;;;;;10.32;8.75;;;;;;;1.07;86.42;99278.61;2145298;83;21169;-81
2021/04/14 04:26:32;;;;;;;9.00;7.37;;;;;;;1.08;86.13;99279.79;2145331;83;21703;-81
2021/04/14 04:29:33;;;;;;;9.93;8.93;;;;;;;1.12;86.43;99277.84;2144989;83;21149;-81
2021/04/14 04:32:35;;;;;;;7.55;6.83;;;;;;;1.12;86.18;99284.29;2144962;83;21122;-81
2021/04/14 04:35:38;;;;;;;9.13;7.92;;;;;;;1.12;86.68;99288.16;2144975;83;21142;-82
2021/04/14 04:38:39;;;;;;;11.28;10.13;;;;;;;1.10;86.58;99288.27;2145084;83;21132;-81
2021/04/14 04:41:41;;;;;;;11.65;8.90;;;;;;;1.12;86.38;99287.69;2168098;82;21144;-82
2021/04/14 04:44:43;;;;;;;11.90;9.83;;;;;;;1.13;86.28;99289.80;2168067;82;21148;-81
2021/04/14 04:47:45;;;;;;;11.45;9.38;;;;;;;1.14;86.20;99292.27;2168072;82;21140;-82
2021/04/14 04:50:47;;;;;;;9.23;8.10;;;;;;;1.16;86.63;99297.78;2168479;82;21152;-80
2021/04/14 04:53:50;;;;;;;9.98;8.98;;;;;;;1.14;86.63;99293.56;2168391;82;21160;-82
2021/04/14 04:56:52;;;;;;;9.48;8.33;;;;;;;1.17;86.74;99298.97;2168528;82;21201;-81
2021/04/14 04:59:53;;;;;;;7.15;5.95;;;;;;;1.19;86.38;99302.29;2162850;82;21149;-81
2021/04/14 05:02:55;;;;;;;10.65;8.65;;;;;;;1.19;86.86;99306.59;2142668;83;21137;-86
2021/04/14 05:05:57;;;;;;;9.93;7.60;;;;;;;1.18;86.54;99306.23;2142956;83;21580;-83
2021/04/14 05:08:59;;;;;;;11.80;9.80;;;;;;;1.19;86.78;99303.58;2142849;83;21561;-83
2021/04/14 05:12:01;;;;;;;14.75;11.18;;;;;;;1.21;86.41;99303.00;2142682;83;21616;-86
2021/04/14 05:15:03;;;;;;;12.30;9.53;;;;;;;1.27;86.28;99305.60;2142656;83;21622;-83
2021/04/14 05:18:04;;;;;;;16.48;11.63;;;;;;;1.31;86.24;99310.93;2142952;83;21189;-85
2021/04/14 05:21:06;;;;;;;17.20;13.05;;;;;;;1.30;86.47;99311.39;2142541;83;21767;-82
2021/04/14 05:24:09;;;;;;;17.52;12.55;;;;;;;1.32;86.28;99309.52;2121621;83;21315;-83
2021/04/14 05:27:10;;;;;;;14.98;12.15;;;;;;;1.33;86.14;99311.64;2142966;83;21580;-84
2021/04/14 05:30:12;;;;;;;12.53;10.28;;;;;;;1.33;86.28;99316.33;2142864;83;21205;-84
2021/04/14 05:33:14;;;;;;;11.12;9.28;;;;;;;1.33;86.47;99316.80;2143122;83;21327;-85
2021/04/14 05:36:16;;;;;;;8.13;7.33;;;;;;;1.31;86.25;99318.67;2143103;83;21161;-85
2021/04/14 05:39:20;;;;;;;9.08;8.18;;;;;;;1.31;86.59;99318.20;2142847;83;21306;-82
2021/04/14 05:42:22;;;;;;;10.78;8.63;;;;;;;1.34;86.36;99321.84;2142977;83;21319;-85
2021/04/14 05:45:24;;;;;;;9.15;8.25;;;;;;;1.36;86.35;99314.82;2142614;83;21334;-87
2021/04/14 05:48:26;;;;;;;7.87;7.08;;;;;;;1.38;86.07;99317.31;2142743;83;21327;-83
2021/04/14 05:51:28;;;;;;;9.88;8.98;;;;;;;1.34;86.38;99324.89;2142562;83;21319;-84
2021/04/14 05:54:30;;;;;;;8.58;6.95;;;;;;;1.31;86.37;99310.46;2142610;83;21751;-83
2021/04/14 05:57:31;;;;;;;9.45;8.55;;;;;;;1.34;86.48;99329.59;2142521;83;21283;-84
2021/04/14 06:00:33;;;;;;;9.68;7.97;;;;;;;1.32;86.16;99318.55;2151287;82;21623;-84
2021/04/14 06:03:35;;;;;;;10.05;8.65;;;;;;;1.33;86.34;99317.63;2168095;82;21140;-84
2021/04/14 06:06:37;;;;;;;11.30;10.08;;;;;;;1.35;86.25;99312.35;2168042;82;21161;-83
2021/04/14 06:09:40;;;;;;;10.53;8.85;;;;;;;1.34;85.97;99311.99;2165770;82;21263;-83
2021/04/14 06:12:42;;;;;;;10.30;8.23;;;;;;;1.32;86.10;99309.52;2148187;83;21189;-84
2021/04/14 06:15:44;;;;;;;9.90;6.80;;;;;;;1.33;86.15;99318.91;2147895;83;21276;-84
2021/04/14 06:18:46;;;;;;;6.70;6.00;;;;;;;1.31;86.03;99319.49;2148220;83;21164;-84
2021/04/14 06:21:48;;;;;;;8.43;6.80;;;;;;;1.30;86.09;99315.27;2148171;83;21216;-83
2021/04/14 06:24:49;;;;;;;10.70;7.42;;;;;;;1.29;85.88;99312.33;2147710;83;21106;-83
2021/04/14 06:27:57;;;;;;;9.85;7.90;;;;;;;1.27;86.00;99307.72;2148160;83;21564;-83
2021/04/14 06:30:56;;;;;;;8.95;7.58;;;;;;;1.33;86.25;99310.34;2148073;83;21152;-82
2021/04/14 06:33:59;;;;;;;8.83;7.28;;;;;;;1.28;86.34;99307.25;2147985;83;21299;-83
2021/04/14 06:37:01;;;;;;;10.40;8.05;;;;;;;1.29;86.29;99303.77;2147884;83;21134;-84
2021/04/14 06:43:28;;;;;;;12.53;8.13;;;;;;;1.29;86.29;99303.77;2138399;83;21851;-84
2021/04/14 06:46:30;;;;;;;9.53;7.03;;;;;;;1.28;86.24;99309.39;2147998;83;22252;-84
2021/04/14 06:49:31;;;;;;;8.65;7.40;;;;;;;1.29;86.16;99316.20;2148235;83;21157;-83
2021/04/14 06:52:33;;;;;;;8.75;6.62;;;;;;;1.30;86.27;99302.83;2147917;83;21303;-84
2021/04/14 06:55:37;;;;;;;12.35;7.00;;;;;;;1.34;86.17;99306.83;2148262;83;21188;-86
2021/04/14 06:58:40;;;;;;;12.98;7.60;;;;;;;1.34;86.16;99310.70;2148108;83;21706;-83
2021/04/14 07:01:41;;;;;;;8.10;6.80;;;;;;;1.36;86.25;99308.37;2144456;82;21746;-83
2021/04/14 07:04:43;;;;;;;7.97;6.25;;;;;;;1.39;86.02;99314.63;2142703;83;21174;-83
2021/04/14 07:07:45;;;;;;;12.45;7.72;;;;;;;1.40;86.09;99305.13;2142430;83;21291;-84
2021/04/14 07:10:47;;;;;;;5.95;5.03;;;;;;;1.43;86.09;99305.72;2142756;83;21652;-82
2021/04/14 07:13:49;;;;;;;7.55;5.35;;;;;;;1.46;85.99;99313.71;2142342;83;21303;-83
2021/04/14 07:16:50;;;;;;;11.40;6.75;;;;;;;1.53;85.94;99311.53;2142388;83;21342;-82
2021/04/14 07:19:52;;;;;;;10.35;6.40;;;;;;;1.55;85.70;99306.61;2142822;83;21185;-83
2021/04/14 07:22:57;;;;;;;5.40;4.40;;;;;;;1.60;85.76;99308.42;2142853;83;21153;-83
2021/04/14 07:25:58;;;;;;;10.10;6.97;;;;;;;1.58;85.62;99310.76;2142431;83;21158;-82
2021/04/14 07:29:01;;;;;;;6.10;4.58;;;;;;;1.57;85.66;99303.95;2142468;83;21133;-83
2021/04/14 07:32:02;;;;;;;6.47;5.78;;;;;;;1.59;85.78;99320.14;2142762;83;21730;-83
2021/04/14 07:35:09;;;;;;;6.03;4.60;;;;;;;1.64;85.75;99312.88;2142750;83;21185;-84
2021/04/14 07:38:07;;;;;;;6.90;4.35;;;;;;;1.69;85.72;99312.93;2142578;83;21645;-82
2021/04/14 07:41:09;;;;;;;3.30;3.00;;;;;;;1.65;85.47;99307.64;2143350;83;21157;-82
2021/04/14 07:44:12;;;;;;;3.08;2.85;;;;;;;1.63;85.70;99333.19;2142667;83;21144;-82
2021/04/14 07:47:14;;;;;;;5.75;3.77;;;;;;;1.65;85.79;99324.42;2142378;83;21185;-81
2021/04/14 07:50:16;;;;;;;3.60;3.35;;;;;;;1.70;85.78;99315.05;2142248;83;21165;-82
2021/04/14 07:53:18;;;;;;;6.08;3.80;;;;;;;1.74;85.47;99318.22;2142386;83;21151;-82
2021/04/14 07:56:21;;;;;;;4.72;3.50;;;;;;;1.78;85.57;99319.67;2142456;83;21146;-82
2021/04/14 07:59:23;;;;;;;3.90;3.58;;;;;;;1.81;85.46;99314.27;2142708;83;21291;-82
2021/04/14 08:02:25;;;;;;;3.98;3.50;;;;;;;1.84;85.33;99316.19;2146569;82;21770;-82
2021/04/14 08:05:27;;;;;;;3.77;3.45;;;;;;;1.91;85.27;99315.27;2147794;83;21340;-81
2021/04/14 08:08:29;;;;;;;4.03;3.40;;;;;;;2.00;84.94;99316.72;2148189;83;21145;-83
2021/04/14 08:11:31;;;;;;;4.80;3.02;;;;;;;2.06;84.79;99319.34;2147962;83;21758;-82
2021/04/14 08:14:35;;;;;;;4.58;3.67;;;;;;;2.09;84.84;99311.83;2147818;83;21283;-82
2021/04/14 08:17:37;;;;;;;13.62;8.08;;;;;;;2.11;84.77;99315.97;2147811;83;21576;-82
2021/04/14 08:20:38;;;;;;;9.13;4.95;;;;;;;2.12;84.85;99312.45;2148104;83;21176;-82
2021/04/14 08:23:40;;;;;;;10.88;7.85;;;;;;;2.11;84.75;99314.67;2147877;83;21317;-83
2021/04/14 08:26:41;;;;;;;8.10;5.95;;;;;;;2.18;84.59;99314.56;2148014;83;21157;-86
2021/04/14 08:29:43;;;;;;;6.17;4.55;;;;;;;2.25;84.12;99317.06;2148011;83;21363;-82
2021/04/14 08:32:45;;;;;;;4.12;3.70;;;;;;;2.31;83.64;99330.02;2148309;83;21113;-83
2021/04/14 08:35:47;;;;;;;5.15;3.83;;;;;;;2.39;83.80;99325.11;2147928;83;21732;-83
2021/04/14 08:38:49;;;;;;;3.67;3.10;;;;;;;2.43;83.65;99318.77;2147809;83;21136;-82
2021/04/14 08:41:51;;;;;;;3.52;3.17;;;;;;;2.42;83.34;99332.63;2147801;83;21311;-82
2021/04/14 08:44:53;;;;;;;3.55;2.85;;;;;;;2.41;83.24;99312.07;2147793;83;21283;-83
2021/04/14 08:47:56;;;;;;;4.92;4.45;;;;;;;2.43;83.14;99334.74;2148107;83;21126;-84
2021/04/14 08:50:57;;;;;;;8.90;5.87;;;;;;;2.44;83.43;99323.46;2148003;83;21581;-84
2021/04/14 08:53:59;;;;;;;6.37;4.37;;;;;;;2.47;83.53;99320.64;2147910;83;21319;-85
2021/04/14 08:57:05;;;;;;;5.65;4.05;;;;;;;2.47;83.05;99330.98;2148109;83;21149;-85
2021/04/14 09:00:06;;;;;;;3.12;2.70;;;;;;;2.45;83.29;99322.05;2147762;83;21782;-84
2021/04/14 09:03:08;;;;;;;2.67;2.47;;;;;;;2.50;82.72;99321.73;2143044;82;21323;-85
2021/04/14 09:06:11;;;;;;;3.22;2.98;;;;;;;2.49;82.74;99318.79;2142380;83;21311;-84
2021/04/14 09:09:12;;;;;;;3.10;2.55;;;;;;;2.47;82.92;99315.03;2142428;83;21322;-90
2021/04/14 09:12:15;;;;;;;4.87;3.17;;;;;;;2.48;82.72;99317.15;2145091;83;21748;-91
2021/04/14 09:15:17;;;;;;;2.58;2.37;;;;;;;2.49;83.12;99317.03;2143262;83;21333;-85
2021/04/14 09:18:19;;;;;;;3.33;2.55;;;;;;;2.51;83.17;99303.52;2142707;83;21743;-86
2021/04/14 09:21:21;;;;;;;3.10;2.75;;;;;;;2.57;83.17;99299.66;2143228;83;21287;-88
2021/04/14 09:24:23;;;;;;;4.97;2.35;;;;;;;2.67;83.20;99301.91;2142676;83;21299;-87
2021/04/14 09:27:28;;;;;;;2.67;2.45;;;;;;;2.76;82.74;99302.52;2142411;83;21308;-84
2021/04/14 09:30:30;;;;;;;5.33;2.87;;;;;;;2.77;82.36;99301.56;2142649;83;21287;-85
2021/04/14 09:33:34;;;;;;;3.08;2.50;;;;;;;2.74;82.28;99304.83;2142224;83;21268;-89
2021/04/14 09:36:45;;;;;;;2.75;2.47;;;;;;;2.78;82.41;99293.34;2142621;83;21715;-85
2021/04/14 09:39:44;;;;;;;6.65;3.10;;;;;;;2.79;82.55;99294.98;2142619;83;21866;-89
2021/04/14 09:42:45;;;;;;;4.75;2.77;;;;;;;2.86;82.55;99287.12;2142695;83;21625;-83
2021/04/14 09:45:47;;;;;;;4.45;2.72;;;;;;;2.87;81.83;99292.64;2142546;83;21146;-84
2021/04/14 09:48:50;;;;;;;5.37;3.30;;;;;;;2.93;81.32;99284.42;2142664;83;21165;-84
2021/04/14 09:51:51;;;;;;;3.15;2.95;;;;;;;2.98;81.95;99290.05;2142486;83;21287;-84
2021/04/14 09:54:53;;;;;;;10.93;3.40;;;;;;;3.04;81.52;99293.47;2142607;83;21267;-85
2021/04/14 09:57:55;;;;;;;4.10;3.22;;;;;;;3.05;81.87;99289.12;2142698;83;21291;-85
2021/04/14 10:01:05;;;;;;;4.78;2.60;;;;;;;3.12;81.41;99294.19;2142592;83;21213;-84
2021/04/14 10:04:07;;;;;;;6.28;2.80;;;;;;;3.05;80.79;99317.58;2142598;83;21680;-84
2021/04/14 10:07:09;;;;;;;5.70;2.98;;;;;;;2.96;80.93;99301.47;2142388;83;21330;-85
2021/04/14 10:10:10;;;;;;;3.55;3.05;;;;;;;3.00;81.68;99292.05;2142498;83;21760;-85
2021/04/14 10:13:12;;;;;;;3.90;2.98;;;;;;;3.04;81.34;99293.95;2142784;83;21196;-84
2021/04/14 10:16:17;;;;;;;2.98;2.80;;;;;;;3.06;81.29;99285.11;2142585;83;21347;-85
2021/04/14 10:19:18;;;;;;;5.25;3.05;;;;;;;3.13;81.90;99289.36;2142510;83;21771;-84
2021/04/14 10:22:20;;;;;;;3.33;3.00;;;;;;;3.21;81.51;99286.19;2142370;83;21324;-85
2021/04/14 10:25:22;;;;;;;5.47;3.80;;;;;;;3.24;80.74;99291.11;2142750;83;21185;-85
2021/04/14 10:28:24;;;;;;;4.28;2.75;;;;;;;3.19;80.43;99290.16;2144361;83;21280;-84
2021/04/14 10:31:26;;;;;;;3.67;2.95;;;;;;;3.24;81.01;99283.34;2142996;83;21192;-84
2021/04/14 10:34:28;;;;;;;7.55;5.08;;;;;;;3.31;80.92;99281.94;2142490;83;21351;-84
2021/04/14 10:37:30;;;;;;;7.85;4.20;;;;;;;3.41;81.34;99271.20;2142486;83;21201;-85
2021/04/14 10:40:32;;;;;;;3.45;3.15;;;;;;;3.45;80.99;99281.66;2142508;83;21842;-85
2021/04/14 10:43:34;;;;;;;8.83;5.05;;;;;;;3.44;80.36;99278.72;2142520;83;21643;-84
2021/04/14 10:46:36;;;;;;;4.97;3.42;;;;;;;3.45;81.10;99276.95;2142370;83;21319;-84
2021/04/14 10:49:38;;;;;;;4.78;4.15;;;;;;;3.48;81.06;99278.85;2142576;83;21343;-84
2021/04/14 10:52:41;;;;;;;7.10;4.78;;;;;;;3.52;81.02;99273.77;2142547;83;21291;-84
2021/04/14 10:55:44;;;;;;;4.03;3.72;;;;;;;3.58;81.08;99273.77;2142575;83;21747;-85
2021/04/14 10:58:46;;;;;;;5.20;4.20;;;;;;;3.60;80.78;99268.81;2142411;83;21150;-85
2021/04/14 11:01:48;;;;;;;4.53;4.03;;;;;;;3.62;80.66;99265.62;2144074;83;21335;-85
2021/04/14 11:04:50;;;;;;;4.65;4.12;;;;;;;3.65;80.62;99270.55;2148078;83;21295;-85
2021/04/14 11:07:52;;;;;;;5.53;4.08;;;;;;;3.67;80.45;99267.86;2147849;83;21319;-85
2021/04/14 11:10:54;;;;;;;4.37;3.98;;;;;;;3.67;79.94;99269.97;2147767;83;21359;-85
2021/04/14 11:13:56;;;;;;;4.87;4.37;;;;;;;3.56;79.81;99263.98;2147923;83;21141;-83
2021/04/14 11:16:57;;;;;;;7.90;6.85;;;;;;;3.48;80.33;99281.44;2147820;83;21163;-82
2021/04/14 11:19:59;;;;;;;5.55;5.00;;;;;;;3.40;80.83;99270.39;2147619;83;21185;-84
2021/04/14 11:23:01;;;;;;;4.15;3.85;;;;;;;3.37;80.79;99287.44;2148121;83;21133;-84
2021/04/14 11:26:03;;;;;;;4.92;4.53;;;;;;;3.24;80.75;99275.11;2148044;83;21303;-83
2021/04/14 11:29:06;;;;;;;5.40;5.00;;;;;;;3.21;81.21;99281.01;2147947;83;21287;-84
2021/04/14 11:32:08;;;;;;;4.60;4.12;;;;;;;3.24;81.64;99275.11;2147971;83;21188;-83
2021/04/14 11:35:10;;;;;;;5.80;5.28;;;;;;;3.33;81.42;99278.75;2148315;83;21153;-84
2021/04/14 11:38:12;;;;;;;6.37;5.78;;;;;;;3.37;81.64;99268.49;2148194;83;21292;-87
2021/04/14 11:41:15;;;;;;;8.28;6.75;;;;;;;3.46;81.74;99266.47;2147909;83;21295;-83
2021/04/14 11:44:17;;;;;;;6.30;4.60;;;;;;;3.64;81.40;99273.27;2148123;83;21762;-83
2021/04/14 11:47:22;;;;;;;6.33;5.10;;;;;;;3.78;79.61;99255.34;2148069;83;21173;-86
2021/04/14 11:50:24;;;;;;;6.83;5.40;;;;;;;3.80;79.91;99262.03;2148054;83;21230;-87
2021/04/14 11:53:27;;;;;;;4.45;3.83;;;;;;;3.88;79.84;99267.90;2147777;83;21279;-86
2021/04/14 11:56:30;;;;;;;6.12;4.25;;;;;;;3.87;79.39;99261.08;2148012;83;21135;-86
2021/04/14 11:59:32;;;;;;;7.55;5.17;;;;;;;3.78;79.51;99256.16;2147997;83;22222;-85
2021/04/14 12:02:34;;;;;;;6.78;4.95;;;;;;;3.77;80.22;99254.99;2147779;83;21157;-84
2021/04/14 12:05:36;;;;;;;8.58;6.25;;;;;;;3.79;80.42;99250.03;2147975;83;21149;-85
2021/04/14 12:08:38;;;;;;;8.63;5.78;;;;;;;3.77;80.33;99267.95;2147837;83;21181;-86
2021/04/14 12:11:39;;;;;;;5.90;4.08;;;;;;;3.76;80.77;99253.34;2147707;83;21148;-85
2021/04/14 12:14:41;;;;;;;4.40;4.00;;;;;;;3.76;79.63;99259.35;2147792;83;21154;-84
2021/04/14 12:17:43;;;;;;;4.87;4.20;;;;;;;3.61;79.89;99260.09;2147777;83;21196;-85
2021/04/14 12:20:45;;;;;;;7.20;5.97;;;;;;;3.50;80.09;99259.30;2148014;83;21173;-84
2021/04/14 12:23:49;;;;;;;8.13;4.50;;;;;;;3.42;80.70;99258.14;2147847;83;21322;-85
2021/04/14 12:26:50;;;;;;;10.90;6.15;;;;;;;3.36;80.15;99257.79;2148179;83;21790;-82
2021/04/14 12:29:52;;;;;;;5.50;3.90;;;;;;;3.28;80.63;99260.97;2147950;83;21303;-86
2021/04/14 12:32:54;;;;;;;8.08;5.45;;;;;;;3.22;81.09;99259.36;2148205;83;21145;-85
2021/04/14 12:35:56;;;;;;;5.42;4.28;;;;;;;3.13;81.58;99255.72;2148044;83;21320;-85
2021/04/14 12:38:58;;;;;;;9.23;5.08;;;;;;;3.07;81.68;99255.70;2147954;83;21173;-84
2021/04/14 12:42:00;;;;;;;5.67;4.35;;;;;;;3.08;81.93;99263.00;2148296;83;21663;-83
2021/04/14 12:45:02;;;;;;;6.75;4.20;;;;;;;3.09;81.64;99259.47;2147633;83;21215;-84
2021/04/14 12:48:04;;;;;;;24.10;16.87;;;;;;;3.07;81.71;99263.47;2147905;83;21295;-84
2021/04/14 12:51:06;;;;;;;10.53;9.50;;;;;;;3.14;81.86;99264.65;2168067;82;21145;-83
2021/04/14 12:54:08;;;;;;;5.95;5.17;;;;;;;3.24;81.68;99257.47;2168257;82;21148;-84
2021/04/14 12:57:10;;;;;;;5.28;4.85;;;;;;;3.41;81.46;99259.09;2168017;82;21168;-84
2021/04/14 13:00:12;;;;;;;7.10;6.37;;;;;;;3.49;80.97;99261.08;2168171;82;21200;-84
2021/04/14 13:03:15;;;;;;;7.35;6.58;;;;;;;3.55;80.97;99255.86;2166496;82;21354;-84
2021/04/14 13:06:17;;;;;;;7.22;6.50;;;;;;;3.67;80.97;99252.31;2165365;82;21315;-84
2021/04/14 13:09:19;;;;;;;11.50;8.90;;;;;;;3.74;80.82;99253.45;2165344;82;21322;-84
2021/04/14 13:12:21;;;;;;;14.00;9.73;;;;;;;3.81;80.89;99252.49;2165290;82;21299;-84
2021/04/14 13:15:23;;;;;;;14.03;10.13;;;;;;;3.87;80.43;99248.13;2165271;82;21180;-84
2021/04/14 13:18:25;;;;;;;19.42;13.70;;;;;;;3.93;80.63;99248.90;2165847;82;21314;-84
2021/04/14 13:21:26;;;;;;;9.03;8.15;;;;;;;3.98;79.82;99248.06;2165516;82;21200;-83
2021/04/14 13:24:28;;;;;;;8.68;7.78;;;;;;;4.00;79.78;99250.05;2165514;82;21180;-84
2021/04/14 13:27:30;;;;;;;5.33;4.78;;;;;;;4.00;79.92;99251.35;2165820;82;21330;-84
2021/04/14 13:30:33;;;;;;;5.72;5.03;;;;;;;4.03;79.21;99260.67;2165633;82;21204;-84
2021/04/14 13:33:35;;;;;;;6.37;5.78;;;;;;;3.90;79.23;99258.23;2165522;82;21307;-84
2021/04/14 13:36:36;;;;;;;6.85;5.17;;;;;;;3.85;79.56;99264.27;2165514;82;21329;-84
2021/04/14 13:39:38;;;;;;;6.35;5.83;;;;;;;3.76;79.47;99258.06;2165852;82;21197;-85
2021/04/14 13:42:40;;;;;;;8.20;6.70;;;;;;;3.69;79.75;99251.72;2165569;82;21171;-85
2021/04/14 13:45:41;;;;;;;8.75;7.08;;;;;;;3.69;80.19;99243.95;2165831;82;21152;-86
2021/04/14 13:48:43;;;;;;;10.10;7.87;;;;;;;3.75;79.97;99243.91;2165391;82;21267;-86
2021/04/14 13:51:46;;;;;;;13.38;9.45;;;;;;;3.79;80.10;99248.73;2165366;82;21282;-85
2021/04/14 13:54:48;;;;;;;16.75;10.03;;;;;;;3.81;80.19;99238.24;2165609;82;21763;-87
2021/04/14 13:57:50;;;;;;;10.72;8.73;;;;;;;3.76;79.84;99246.40;2165636;82;21751;-85
2021/04/14 14:00:53;;;;;;;10.30;7.85;;;;;;;3.69;79.92;99240.88;2165551;82;21327;-86
2021/04/14 14:03:54;;;;;;;7.35;6.78;;;;;;;3.61;80.34;99240.67;2165688;81;21338;-86
2021/04/14 14:06:56;;;;;;;9.10;7.78;;;;;;;3.57;80.35;99245.76;2165486;82;21176;-86
2021/04/14 14:09:59;;;;;;;7.83;7.08;;;;;;;3.54;80.14;99247.75;2165929;82;21345;-86
2021/04/14 14:13:01;;;;;;;10.38;9.33;;;;;;;3.49;80.06;99252.02;2165476;82;21147;-86
2021/04/14 14:16:03;;;;;;;7.40;6.70;;;;;;;3.44;80.44;99246.36;2165831;82;21323;-85
2021/04/14 14:19:08;;;;;;;7.58;6.87;;;;;;;3.46;80.54;99235.88;2165578;82;21172;-86
2021/04/14 14:22:11;;;;;;;6.05;5.20;;;;;;;3.46;80.60;99236.70;2165490;82;21279;-85
2021/04/14 14:25:13;;;;;;;6.60;6.10;;;;;;;3.41;80.38;99234.48;2165899;82;21298;-85